sensor_id;sensor_type;location;lat;lon;timestamp;P1;durP1;ratioP1;P2;durP2;ratioP2
61531;SDS011;47397;48.194;11.632;2022-08-04T00:00:49;4.88;;;4.35;;
61531;SDS011;47397;48.194;11.632;2022-08-04T00:02:01;4.70;;;3.97;;
61531;SDS011;47397;48.194;11.632;2022-08-04T00:03:12;4.90;;;3.88;;
61531;SDS011;47397;48.194;11.632;2022-08-04T00:04:17;4.25;;;3.65;;
61531;SDS011;47397;48.194;11.632;2022-08-04T00:05:38;5.28;;;4.22;;
61531;SDS011;47397;48.194;11.632;2022-08-04T00:06:53;5.65;;;3.70;;
61531;SDS011;47397;48.194;11.632;2022-08-04T00:08:05;4.85;;;4.35;;
61531;SDS011;47397;48.194;11.632;2022-08-04T00:09:12;4.30;;;3.65;;
61531;SDS011;47397;48.194;11.632;2022-08-04T00:10:17;5.57;;;4.03;;
61531;SDS011;47397;48.194;11.632;2022-08-04T00:11:21;5.35;;;3.72;;
61531;SDS011;47397;48.194;11.632;2022-08-04T00:12:24;4.10;;;3.60;;
61531;SDS011;47397;48.194;11.632;2022-08-04T00:13:26;4.85;;;3.90;;
61531;SDS011;47397;48.194;11.632;2022-08-04T00:14:28;6.38;;;4.05;;
61531;SDS011;47397;48.194;11.632;2022-08-04T00:15:33;5.10;;;3.67;;
61531;SDS011;47397;48.194;11.632;2022-08-04T00:16:34;4.53;;;3.80;;
61531;SDS011;47397;48.194;11.632;2022-08-04T00:17:37;5.35;;;3.80;;
61531;SDS011;47397;48.194;11.632;2022-08-04T00:18:39;7.57;;;4.13;;
61531;SDS011;47397;48.194;11.632;2022-08-04T00:19:43;4.22;;;3.70;;
61531;SDS011;47397;48.194;11.632;2022-08-04T00:20:45;4.78;;;3.35;;
61531;SDS011;47397;48.194;11.632;2022-08-04T00:21:46;4.75;;;3.50;;
61531;SDS011;47397;48.194;11.632;2022-08-04T00:22:51;6.00;;;3.70;;
61531;SDS011;47397;48.194;11.632;2022-08-04T00:23:53;4.43;;;3.55;;
61531;SDS011;47397;48.194;11.632;2022-08-04T00:24:54;4.97;;;3.63;;
61531;SDS011;47397;48.194;11.632;2022-08-04T00:25:55;4.63;;;3.60;;
61531;SDS011;47397;48.194;11.632;2022-08-04T00:26:56;4.80;;;3.80;;
61531;SDS011;47397;48.194;11.632;2022-08-04T00:27:58;4.20;;;3.33;;
61531;SDS011;47397;48.194;11.632;2022-08-04T00:28:59;4.75;;;3.55;;
61531;SDS011;47397;48.194;11.632;2022-08-04T00:30:00;5.50;;;3.40;;
61531;SDS011;47397;48.194;11.632;2022-08-04T00:31:00;6.88;;;3.25;;
61531;SDS011;47397;48.194;11.632;2022-08-04T00:32:01;5.18;;;3.53;;
61531;SDS011;47397;48.194;11.632;2022-08-04T00:33:02;5.10;;;3.33;;
61531;SDS011;47397;48.194;11.632;2022-08-04T00:34:03;5.38;;;3.42;;
61531;SDS011;47397;48.194;11.632;2022-08-04T00:35:04;4.75;;;3.55;;
61531;SDS011;47397;48.194;11.632;2022-08-04T00:36:08;5.47;;;3.40;;
61531;SDS011;47397;48.194;11.632;2022-08-04T00:37:10;5.88;;;3.35;;
61531;SDS011;47397;48.194;11.632;2022-08-04T00:38:11;5.70;;;3.25;;
61531;SDS011;47397;48.194;11.632;2022-08-04T00:39:13;3.92;;;3.05;;
61531;SDS011;47397;48.194;11.632;2022-08-04T00:40:22;3.95;;;3.10;;
61531;SDS011;47397;48.194;11.632;2022-08-04T00:41:38;4.70;;;3.22;;
61531;SDS011;47397;48.194;11.632;2022-08-04T00:42:48;4.38;;;3.08;;
61531;SDS011;47397;48.194;11.632;2022-08-04T00:44:01;4.90;;;3.65;;
61531;SDS011;47397;48.194;11.632;2022-08-04T00:45:16;4.07;;;3.38;;
61531;SDS011;47397;48.194;11.632;2022-08-04T00:48:18;5.93;;;3.15;;
61531;SDS011;47397;48.194;11.632;2022-08-04T00:49:41;6.15;;;3.33;;
61531;SDS011;47397;48.194;11.632;2022-08-04T00:50:55;5.68;;;3.38;;
61531;SDS011;47397;48.194;11.632;2022-08-04T00:52:07;4.90;;;3.30;;
61531;SDS011;47397;48.194;11.632;2022-08-04T00:53:23;6.75;;;3.38;;
61531;SDS011;47397;48.194;11.632;2022-08-04T00:54:32;4.07;;;3.15;;
61531;SDS011;47397;48.194;11.632;2022-08-04T00:55:41;4.38;;;3.00;;
61531;SDS011;47397;48.194;11.632;2022-08-04T00:58:28;5.35;;;3.08;;
61531;SDS011;47397;48.194;11.632;2022-08-04T00:59:41;4.25;;;3.50;;
61531;SDS011;47397;48.194;11.632;2022-08-04T01:01:02;6.25;;;3.22;;
61531;SDS011;47397;48.194;11.632;2022-08-04T01:02:06;3.75;;;3.35;;
61531;SDS011;47397;48.194;11.632;2022-08-04T01:03:17;4.55;;;3.35;;
61531;SDS011;47397;48.194;11.632;2022-08-04T01:04:23;4.18;;;3.60;;
61531;SDS011;47397;48.194;11.632;2022-08-04T01:05:39;3.38;;;2.90;;
61531;SDS011;47397;48.194;11.632;2022-08-04T01:06:54;3.72;;;3.28;;
61531;SDS011;47397;48.194;11.632;2022-08-04T01:08:17;5.97;;;3.30;;
61531;SDS011;47397;48.194;11.632;2022-08-04T01:09:38;5.30;;;3.42;;
61531;SDS011;47397;48.194;11.632;2022-08-04T01:10:47;3.90;;;3.15;;
61531;SDS011;47397;48.194;11.632;2022-08-04T01:12:09;4.85;;;3.20;;
61531;SDS011;47397;48.194;11.632;2022-08-04T01:13:28;3.58;;;3.10;;
61531;SDS011;47397;48.194;11.632;2022-08-04T01:14:45;3.95;;;3.05;;
61531;SDS011;47397;48.194;11.632;2022-08-04T01:15:52;4.22;;;2.97;;
61531;SDS011;47397;48.194;11.632;2022-08-04T01:16:56;4.20;;;3.42;;
61531;SDS011;47397;48.194;11.632;2022-08-04T01:18:03;8.85;;;3.50;;
61531;SDS011;47397;48.194;11.632;2022-08-04T01:19:07;6.30;;;3.65;;
61531;SDS011;47397;48.194;11.632;2022-08-04T01:20:19;5.15;;;3.03;;
61531;SDS011;47397;48.194;11.632;2022-08-04T01:21:30;5.10;;;3.60;;
61531;SDS011;47397;48.194;11.632;2022-08-04T01:23:00;5.07;;;3.20;;
61531;SDS011;47397;48.194;11.632;2022-08-04T01:24:21;3.95;;;3.08;;
61531;SDS011;47397;48.194;11.632;2022-08-04T01:25:35;4.00;;;3.25;;
61531;SDS011;47397;48.194;11.632;2022-08-04T01:26:52;5.00;;;3.58;;
61531;SDS011;47397;48.194;11.632;2022-08-04T01:28:03;6.22;;;3.53;;
61531;SDS011;47397;48.194;11.632;2022-08-04T01:29:16;5.68;;;3.20;;
61531;SDS011;47397;48.194;11.632;2022-08-04T01:30:20;3.47;;;3.17;;
61531;SDS011;47397;48.194;11.632;2022-08-04T01:31:25;4.90;;;3.80;;
61531;SDS011;47397;48.194;11.632;2022-08-04T01:32:35;4.60;;;3.60;;
61531;SDS011;47397;48.194;11.632;2022-08-04T01:33:37;5.18;;;3.47;;
61531;SDS011;47397;48.194;11.632;2022-08-04T01:34:41;4.00;;;3.25;;
61531;SDS011;47397;48.194;11.632;2022-08-04T01:35:47;5.93;;;3.70;;
61531;SDS011;47397;48.194;11.632;2022-08-04T01:36:53;4.60;;;3.10;;
61531;SDS011;47397;48.194;11.632;2022-08-04T01:38:00;5.60;;;3.60;;
61531;SDS011;47397;48.194;11.632;2022-08-04T01:39:01;4.25;;;3.25;;
61531;SDS011;47397;48.194;11.632;2022-08-04T01:40:03;4.18;;;3.35;;
61531;SDS011;47397;48.194;11.632;2022-08-04T01:41:06;4.25;;;3.75;;
61531;SDS011;47397;48.194;11.632;2022-08-04T01:42:08;4.00;;;3.45;;
61531;SDS011;47397;48.194;11.632;2022-08-04T01:43:10;3.83;;;3.42;;
61531;SDS011;47397;48.194;11.632;2022-08-04T01:44:12;4.78;;;3.63;;
61531;SDS011;47397;48.194;11.632;2022-08-04T01:45:15;4.25;;;3.58;;
61531;SDS011;47397;48.194;11.632;2022-08-04T01:46:16;4.65;;;3.63;;
61531;SDS011;47397;48.194;11.632;2022-08-04T01:47:19;5.97;;;3.67;;
61531;SDS011;47397;48.194;11.632;2022-08-04T01:48:22;4.00;;;3.40;;
61531;SDS011;47397;48.194;11.632;2022-08-04T01:49:26;4.97;;;3.58;;
61531;SDS011;47397;48.194;11.632;2022-08-04T01:50:28;4.15;;;3.50;;
61531;SDS011;47397;48.194;11.632;2022-08-04T01:51:33;4.25;;;3.67;;
61531;SDS011;47397;48.194;11.632;2022-08-04T01:52:40;4.07;;;3.65;;
61531;SDS011;47397;48.194;11.632;2022-08-04T01:53:42;4.38;;;3.90;;
61531;SDS011;47397;48.194;11.632;2022-08-04T01:54:43;4.22;;;3.83;;
61531;SDS011;47397;48.194;11.632;2022-08-04T01:55:45;4.45;;;3.70;;
61531;SDS011;47397;48.194;11.632;2022-08-04T01:56:47;4.60;;;3.65;;
61531;SDS011;47397;48.194;11.632;2022-08-04T01:57:49;5.38;;;4.07;;
61531;SDS011;47397;48.194;11.632;2022-08-04T01:58:51;5.05;;;3.75;;
61531;SDS011;47397;48.194;11.632;2022-08-04T01:59:57;5.38;;;3.80;;
61531;SDS011;47397;48.194;11.632;2022-08-04T02:01:01;4.70;;;3.55;;
61531;SDS011;47397;48.194;11.632;2022-08-04T02:02:03;5.13;;;3.80;;
61531;SDS011;47397;48.194;11.632;2022-08-04T02:03:04;4.13;;;3.50;;
61531;SDS011;47397;48.194;11.632;2022-08-04T02:04:04;4.18;;;3.50;;
61531;SDS011;47397;48.194;11.632;2022-08-04T02:05:05;5.32;;;3.70;;
61531;SDS011;47397;48.194;11.632;2022-08-04T02:06:10;7.13;;;3.78;;
61531;SDS011;47397;48.194;11.632;2022-08-04T02:07:34;4.75;;;3.63;;
61531;SDS011;47397;48.194;11.632;2022-08-04T02:09:51;4.18;;;3.70;;
61531;SDS011;47397;48.194;11.632;2022-08-04T02:11:03;4.82;;;4.15;;
61531;SDS011;47397;48.194;11.632;2022-08-04T02:12:11;5.47;;;4.00;;
61531;SDS011;47397;48.194;11.632;2022-08-04T02:13:20;4.85;;;3.78;;
61531;SDS011;47397;48.194;11.632;2022-08-04T02:14:27;4.75;;;4.00;;
61531;SDS011;47397;48.194;11.632;2022-08-04T02:15:30;6.40;;;4.50;;
61531;SDS011;47397;48.194;11.632;2022-08-04T02:16:42;5.18;;;4.05;;
61531;SDS011;47397;48.194;11.632;2022-08-04T02:17:49;4.70;;;4.00;;
61531;SDS011;47397;48.194;11.632;2022-08-04T02:19:01;6.25;;;3.95;;
61531;SDS011;47397;48.194;11.632;2022-08-04T02:20:11;5.82;;;3.95;;
61531;SDS011;47397;48.194;11.632;2022-08-04T02:21:18;5.03;;;4.22;;
61531;SDS011;47397;48.194;11.632;2022-08-04T02:22:19;4.00;;;3.60;;
61531;SDS011;47397;48.194;11.632;2022-08-04T02:23:26;4.47;;;4.07;;
61531;SDS011;47397;48.194;11.632;2022-08-04T02:24:29;5.97;;;4.20;;
61531;SDS011;47397;48.194;11.632;2022-08-04T02:25:33;5.22;;;4.30;;
61531;SDS011;47397;48.194;11.632;2022-08-04T02:26:37;4.72;;;4.18;;
61531;SDS011;47397;48.194;11.632;2022-08-04T02:27:47;6.47;;;4.35;;
61531;SDS011;47397;48.194;11.632;2022-08-04T02:28:57;4.95;;;4.30;;
61531;SDS011;47397;48.194;11.632;2022-08-04T02:30:10;6.03;;;4.10;;
61531;SDS011;47397;48.194;11.632;2022-08-04T02:31:13;4.65;;;3.80;;
61531;SDS011;47397;48.194;11.632;2022-08-04T02:32:20;4.43;;;3.97;;
61531;SDS011;47397;48.194;11.632;2022-08-04T02:33:27;4.32;;;3.92;;
61531;SDS011;47397;48.194;11.632;2022-08-04T02:34:33;5.93;;;4.38;;
61531;SDS011;47397;48.194;11.632;2022-08-04T02:35:41;5.55;;;4.22;;
61531;SDS011;47397;48.194;11.632;2022-08-04T02:36:44;4.95;;;4.43;;
61531;SDS011;47397;48.194;11.632;2022-08-04T02:37:47;5.25;;;4.25;;
61531;SDS011;47397;48.194;11.632;2022-08-04T02:38:55;4.93;;;4.43;;
61531;SDS011;47397;48.194;11.632;2022-08-04T02:39:58;5.40;;;4.60;;
61531;SDS011;47397;48.194;11.632;2022-08-04T02:41:01;5.43;;;4.28;;
61531;SDS011;47397;48.194;11.632;2022-08-04T02:42:04;7.10;;;4.20;;
61531;SDS011;47397;48.194;11.632;2022-08-04T02:43:05;4.60;;;4.07;;
61531;SDS011;47397;48.194;11.632;2022-08-04T02:44:07;5.88;;;4.53;;
61531;SDS011;47397;48.194;11.632;2022-08-04T02:45:08;5.57;;;4.80;;
61531;SDS011;47397;48.194;11.632;2022-08-04T02:46:11;4.68;;;4.18;;
61531;SDS011;47397;48.194;11.632;2022-08-04T02:47:12;4.80;;;4.22;;
61531;SDS011;47397;48.194;11.632;2022-08-04T02:48:15;6.38;;;4.25;;
61531;SDS011;47397;48.194;11.632;2022-08-04T02:49:16;5.07;;;3.90;;
61531;SDS011;47397;48.194;11.632;2022-08-04T02:50:18;4.43;;;4.03;;
61531;SDS011;47397;48.194;11.632;2022-08-04T02:51:21;4.60;;;4.18;;
61531;SDS011;47397;48.194;11.632;2022-08-04T02:52:22;5.47;;;3.70;;
61531;SDS011;47397;48.194;11.632;2022-08-04T02:53:24;5.05;;;4.03;;
61531;SDS011;47397;48.194;11.632;2022-08-04T02:54:26;5.00;;;4.05;;
61531;SDS011;47397;48.194;11.632;2022-08-04T02:55:30;4.82;;;4.20;;
61531;SDS011;47397;48.194;11.632;2022-08-04T02:56:33;6.13;;;4.28;;
61531;SDS011;47397;48.194;11.632;2022-08-04T02:57:34;5.28;;;4.13;;
61531;SDS011;47397;48.194;11.632;2022-08-04T02:58:37;5.88;;;4.25;;
61531;SDS011;47397;48.194;11.632;2022-08-04T02:59:43;4.95;;;4.22;;
61531;SDS011;47397;48.194;11.632;2022-08-04T03:00:54;4.20;;;3.80;;
61531;SDS011;47397;48.194;11.632;2022-08-04T03:01:55;6.32;;;4.30;;
61531;SDS011;47397;48.194;11.632;2022-08-04T03:02:59;5.78;;;4.22;;
61531;SDS011;47397;48.194;11.632;2022-08-04T03:04:12;5.53;;;4.30;;
61531;SDS011;47397;48.194;11.632;2022-08-04T03:05:31;4.75;;;4.25;;
61531;SDS011;47397;48.194;11.632;2022-08-04T03:06:44;5.53;;;4.18;;
61531;SDS011;47397;48.194;11.632;2022-08-04T03:08:20;6.28;;;4.35;;
61531;SDS011;47397;48.194;11.632;2022-08-04T03:09:44;4.88;;;4.38;;
61531;SDS011;47397;48.194;11.632;2022-08-04T03:11:09;5.55;;;4.00;;
61531;SDS011;47397;48.194;11.632;2022-08-04T03:12:51;5.32;;;4.00;;
61531;SDS011;47397;48.194;11.632;2022-08-04T03:14:23;5.45;;;3.53;;
61531;SDS011;47397;48.194;11.632;2022-08-04T03:15:53;7.18;;;4.07;;
61531;SDS011;47397;48.194;11.632;2022-08-04T03:17:05;4.68;;;4.10;;
61531;SDS011;47397;48.194;11.632;2022-08-04T03:18:48;5.00;;;3.85;;
61531;SDS011;47397;48.194;11.632;2022-08-04T03:20:27;4.70;;;4.20;;
61531;SDS011;47397;48.194;11.632;2022-08-04T03:23:41;6.35;;;4.10;;
61531;SDS011;47397;48.194;11.632;2022-08-04T03:25:13;6.65;;;4.20;;
61531;SDS011;47397;48.194;11.632;2022-08-04T03:29:59;6.25;;;4.32;;
61531;SDS011;47397;48.194;11.632;2022-08-04T03:31:09;5.90;;;4.20;;
61531;SDS011;47397;48.194;11.632;2022-08-04T03:34:33;5.78;;;4.35;;
61531;SDS011;47397;48.194;11.632;2022-08-04T03:35:50;5.75;;;3.95;;
61531;SDS011;47397;48.194;11.632;2022-08-04T03:40:20;4.45;;;4.05;;
61531;SDS011;47397;48.194;11.632;2022-08-04T03:41:47;5.07;;;4.22;;
61531;SDS011;47397;48.194;11.632;2022-08-04T03:48:12;4.63;;;4.00;;
61531;SDS011;47397;48.194;11.632;2022-08-04T03:51:17;5.28;;;4.18;;
61531;SDS011;47397;48.194;11.632;2022-08-04T03:52:37;5.47;;;4.07;;
61531;SDS011;47397;48.194;11.632;2022-08-04T03:54:08;5.40;;;4.13;;
61531;SDS011;47397;48.194;11.632;2022-08-04T03:58:59;5.90;;;4.05;;
61531;SDS011;47397;48.194;11.632;2022-08-04T04:00:14;4.45;;;3.90;;
61531;SDS011;47397;48.194;11.632;2022-08-04T04:01:31;4.30;;;3.90;;
61531;SDS011;47397;48.194;11.632;2022-08-04T04:03:12;4.50;;;4.10;;
61531;SDS011;47397;48.194;11.632;2022-08-04T04:04:43;4.10;;;3.70;;
61531;SDS011;47397;48.194;11.632;2022-08-04T04:06:04;5.18;;;4.00;;
61531;SDS011;47397;48.194;11.632;2022-08-04T04:07:39;5.07;;;4.57;;
61531;SDS011;47397;48.194;11.632;2022-08-04T04:09:09;6.38;;;4.30;;
61531;SDS011;47397;48.194;11.632;2022-08-04T04:12:18;6.20;;;4.60;;
61531;SDS011;47397;48.194;11.632;2022-08-04T04:13:33;4.95;;;4.18;;
61531;SDS011;47397;48.194;11.632;2022-08-04T04:14:52;6.47;;;4.38;;
61531;SDS011;47397;48.194;11.632;2022-08-04T04:16:12;6.72;;;4.75;;
61531;SDS011;47397;48.194;11.632;2022-08-04T04:20:32;6.25;;;4.60;;
61531;SDS011;47397;48.194;11.632;2022-08-04T04:23:20;6.60;;;4.70;;
61531;SDS011;47397;48.194;11.632;2022-08-04T04:24:32;6.10;;;4.40;;
61531;SDS011;47397;48.194;11.632;2022-08-04T04:25:48;4.97;;;4.50;;
61531;SDS011;47397;48.194;11.632;2022-08-04T04:26:58;5.55;;;4.90;;
61531;SDS011;47397;48.194;11.632;2022-08-04T04:28:19;7.03;;;4.45;;
61531;SDS011;47397;48.194;11.632;2022-08-04T04:29:43;5.28;;;4.78;;
61531;SDS011;47397;48.194;11.632;2022-08-04T04:31:01;5.15;;;4.40;;
61531;SDS011;47397;48.194;11.632;2022-08-04T04:32:22;6.10;;;4.47;;
61531;SDS011;47397;48.194;11.632;2022-08-04T04:33:31;5.63;;;4.97;;
61531;SDS011;47397;48.194;11.632;2022-08-04T04:34:44;5.85;;;4.70;;
61531;SDS011;47397;48.194;11.632;2022-08-04T04:35:57;5.68;;;4.45;;
61531;SDS011;47397;48.194;11.632;2022-08-04T04:37:14;8.05;;;4.60;;
61531;SDS011;47397;48.194;11.632;2022-08-04T04:40:10;5.00;;;4.40;;
61531;SDS011;47397;48.194;11.632;2022-08-04T04:41:30;6.13;;;4.70;;
61531;SDS011;47397;48.194;11.632;2022-08-04T04:42:51;4.90;;;4.40;;
61531;SDS011;47397;48.194;11.632;2022-08-04T04:44:11;5.03;;;4.53;;
61531;SDS011;47397;48.194;11.632;2022-08-04T04:45:21;5.55;;;4.82;;
61531;SDS011;47397;48.194;11.632;2022-08-04T04:46:29;6.60;;;4.28;;
61531;SDS011;47397;48.194;11.632;2022-08-04T04:47:40;5.57;;;4.60;;
61531;SDS011;47397;48.194;11.632;2022-08-04T04:48:50;7.80;;;4.55;;
61531;SDS011;47397;48.194;11.632;2022-08-04T04:49:56;6.00;;;4.60;;
61531;SDS011;47397;48.194;11.632;2022-08-04T04:51:05;4.90;;;4.38;;
61531;SDS011;47397;48.194;11.632;2022-08-04T04:52:11;6.95;;;4.60;;
61531;SDS011;47397;48.194;11.632;2022-08-04T04:53:23;5.05;;;4.55;;
61531;SDS011;47397;48.194;11.632;2022-08-04T04:54:29;5.75;;;4.13;;
61531;SDS011;47397;48.194;11.632;2022-08-04T04:55:34;4.97;;;4.40;;
61531;SDS011;47397;48.194;11.632;2022-08-04T04:56:43;7.53;;;4.55;;
61531;SDS011;47397;48.194;11.632;2022-08-04T04:57:49;5.45;;;4.47;;
61531;SDS011;47397;48.194;11.632;2022-08-04T04:58:51;5.65;;;4.65;;
61531;SDS011;47397;48.194;11.632;2022-08-04T04:59:54;5.95;;;4.88;;
61531;SDS011;47397;48.194;11.632;2022-08-04T05:01:04;5.50;;;4.43;;
61531;SDS011;47397;48.194;11.632;2022-08-04T05:02:33;5.20;;;4.70;;
61531;SDS011;47397;48.194;11.632;2022-08-04T05:03:47;5.97;;;4.47;;
61531;SDS011;47397;48.194;11.632;2022-08-04T05:05:10;5.88;;;4.68;;
61531;SDS011;47397;48.194;11.632;2022-08-04T05:06:27;5.13;;;4.32;;
61531;SDS011;47397;48.194;11.632;2022-08-04T05:07:51;4.93;;;4.28;;
61531;SDS011;47397;48.194;11.632;2022-08-04T05:09:02;6.10;;;4.50;;
61531;SDS011;47397;48.194;11.632;2022-08-04T05:10:15;5.53;;;4.35;;
61531;SDS011;47397;48.194;11.632;2022-08-04T05:11:50;5.13;;;4.63;;
61531;SDS011;47397;48.194;11.632;2022-08-04T05:13:03;4.82;;;4.38;;
61531;SDS011;47397;48.194;11.632;2022-08-04T05:14:15;4.88;;;4.38;;
61531;SDS011;47397;48.194;11.632;2022-08-04T05:15:19;5.10;;;4.63;;
61531;SDS011;47397;48.194;11.632;2022-08-04T05:16:24;4.88;;;4.25;;
61531;SDS011;47397;48.194;11.632;2022-08-04T05:17:32;4.90;;;4.40;;
61531;SDS011;47397;48.194;11.632;2022-08-04T05:18:36;5.45;;;4.18;;
61531;SDS011;47397;48.194;11.632;2022-08-04T05:19:42;5.85;;;4.30;;
61531;SDS011;47397;48.194;11.632;2022-08-04T05:20:52;5.45;;;4.88;;
61531;SDS011;47397;48.194;11.632;2022-08-04T05:21:58;5.32;;;4.65;;
61531;SDS011;47397;48.194;11.632;2022-08-04T05:23:06;4.97;;;4.20;;
61531;SDS011;47397;48.194;11.632;2022-08-04T05:24:12;5.60;;;4.68;;
61531;SDS011;47397;48.194;11.632;2022-08-04T05:25:20;4.85;;;4.30;;
61531;SDS011;47397;48.194;11.632;2022-08-04T05:26:25;5.78;;;4.07;;
61531;SDS011;47397;48.194;11.632;2022-08-04T05:27:36;5.50;;;4.80;;
61531;SDS011;47397;48.194;11.632;2022-08-04T05:28:40;6.05;;;4.57;;
61531;SDS011;47397;48.194;11.632;2022-08-04T05:29:44;4.95;;;4.45;;
61531;SDS011;47397;48.194;11.632;2022-08-04T05:30:49;5.90;;;4.50;;
61531;SDS011;47397;48.194;11.632;2022-08-04T05:31:53;6.50;;;4.57;;
61531;SDS011;47397;48.194;11.632;2022-08-04T05:32:58;5.25;;;4.57;;
61531;SDS011;47397;48.194;11.632;2022-08-04T05:34:03;5.07;;;4.57;;
61531;SDS011;47397;48.194;11.632;2022-08-04T05:35:07;5.30;;;4.80;;
61531;SDS011;47397;48.194;11.632;2022-08-04T05:36:10;5.13;;;4.38;;
61531;SDS011;47397;48.194;11.632;2022-08-04T05:37:16;4.90;;;4.40;;
61531;SDS011;47397;48.194;11.632;2022-08-04T05:38:21;6.50;;;4.88;;
61531;SDS011;47397;48.194;11.632;2022-08-04T05:39:25;6.85;;;4.70;;
61531;SDS011;47397;48.194;11.632;2022-08-04T05:40:28;8.32;;;5.50;;
61531;SDS011;47397;48.194;11.632;2022-08-04T05:41:29;6.03;;;5.30;;
61531;SDS011;47397;48.194;11.632;2022-08-04T05:42:33;5.50;;;4.55;;
61531;SDS011;47397;48.194;11.632;2022-08-04T05:43:36;5.65;;;5.00;;
61531;SDS011;47397;48.194;11.632;2022-08-04T05:44:37;5.10;;;4.57;;
61531;SDS011;47397;48.194;11.632;2022-08-04T05:45:39;8.75;;;5.25;;
61531;SDS011;47397;48.194;11.632;2022-08-04T05:46:41;6.57;;;5.47;;
61531;SDS011;47397;48.194;11.632;2022-08-04T05:47:42;7.65;;;6.20;;
61531;SDS011;47397;48.194;11.632;2022-08-04T05:48:44;8.85;;;7.95;;
61531;SDS011;47397;48.194;11.632;2022-08-04T05:49:46;11.30;;;6.25;;
61531;SDS011;47397;48.194;11.632;2022-08-04T05:50:47;9.38;;;6.30;;
61531;SDS011;47397;48.194;11.632;2022-08-04T05:51:48;8.70;;;6.40;;
61531;SDS011;47397;48.194;11.632;2022-08-04T05:52:49;9.07;;;7.18;;
61531;SDS011;47397;48.194;11.632;2022-08-04T05:53:53;11.73;;;8.18;;
61531;SDS011;47397;48.194;11.632;2022-08-04T05:54:54;6.95;;;6.25;;
61531;SDS011;47397;48.194;11.632;2022-08-04T05:55:57;8.63;;;6.30;;
61531;SDS011;47397;48.194;11.632;2022-08-04T05:57:00;7.50;;;6.25;;
61531;SDS011;47397;48.194;11.632;2022-08-04T05:58:03;7.40;;;5.30;;
61531;SDS011;47397;48.194;11.632;2022-08-04T05:59:04;8.15;;;5.65;;
61531;SDS011;47397;48.194;11.632;2022-08-04T06:00:06;7.53;;;5.07;;
61531;SDS011;47397;48.194;11.632;2022-08-04T06:01:08;5.90;;;5.20;;
61531;SDS011;47397;48.194;11.632;2022-08-04T06:02:09;6.97;;;5.38;;
61531;SDS011;47397;48.194;11.632;2022-08-04T06:03:11;6.05;;;4.90;;
61531;SDS011;47397;48.194;11.632;2022-08-04T06:04:12;6.43;;;5.35;;
61531;SDS011;47397;48.194;11.632;2022-08-04T06:05:15;6.25;;;5.25;;
61531;SDS011;47397;48.194;11.632;2022-08-04T06:06:16;6.03;;;5.05;;
61531;SDS011;47397;48.194;11.632;2022-08-04T06:07:18;5.45;;;4.93;;
61531;SDS011;47397;48.194;11.632;2022-08-04T06:08:19;6.50;;;5.03;;
61531;SDS011;47397;48.194;11.632;2022-08-04T06:09:20;6.40;;;4.88;;
61531;SDS011;47397;48.194;11.632;2022-08-04T06:10:21;5.93;;;4.60;;
61531;SDS011;47397;48.194;11.632;2022-08-04T06:11:24;6.28;;;4.57;;
61531;SDS011;47397;48.194;11.632;2022-08-04T06:12:28;7.45;;;4.55;;
61531;SDS011;47397;48.194;11.632;2022-08-04T06:13:35;4.95;;;4.40;;
61531;SDS011;47397;48.194;11.632;2022-08-04T06:14:41;5.70;;;4.30;;
61531;SDS011;47397;48.194;11.632;2022-08-04T06:15:43;5.10;;;4.30;;
61531;SDS011;47397;48.194;11.632;2022-08-04T06:16:44;5.65;;;4.57;;
61531;SDS011;47397;48.194;11.632;2022-08-04T06:17:47;5.68;;;4.35;;
61531;SDS011;47397;48.194;11.632;2022-08-04T06:18:49;7.10;;;4.70;;
61531;SDS011;47397;48.194;11.632;2022-08-04T06:19:52;5.38;;;4.20;;
61531;SDS011;47397;48.194;11.632;2022-08-04T06:20:53;5.80;;;4.25;;
61531;SDS011;47397;48.194;11.632;2022-08-04T06:21:55;7.57;;;4.47;;
61531;SDS011;47397;48.194;11.632;2022-08-04T06:22:59;6.80;;;4.63;;
61531;SDS011;47397;48.194;11.632;2022-08-04T06:24:01;8.70;;;4.05;;
61531;SDS011;47397;48.194;11.632;2022-08-04T06:25:07;6.25;;;4.30;;
61531;SDS011;47397;48.194;11.632;2022-08-04T06:26:11;5.20;;;4.20;;
61531;SDS011;47397;48.194;11.632;2022-08-04T06:27:13;6.30;;;4.30;;
61531;SDS011;47397;48.194;11.632;2022-08-04T06:28:15;5.15;;;3.92;;
61531;SDS011;47397;48.194;11.632;2022-08-04T06:29:17;6.03;;;4.38;;
61531;SDS011;47397;48.194;11.632;2022-08-04T06:30:19;8.77;;;4.20;;
61531;SDS011;47397;48.194;11.632;2022-08-04T06:31:20;6.70;;;3.97;;
61531;SDS011;47397;48.194;11.632;2022-08-04T06:32:22;5.20;;;4.30;;
61531;SDS011;47397;48.194;11.632;2022-08-04T06:33:23;6.93;;;4.38;;
61531;SDS011;47397;48.194;11.632;2022-08-04T06:34:24;6.28;;;4.05;;
61531;SDS011;47397;48.194;11.632;2022-08-04T06:35:26;7.00;;;4.07;;
61531;SDS011;47397;48.194;11.632;2022-08-04T06:36:29;6.30;;;4.00;;
61531;SDS011;47397;48.194;11.632;2022-08-04T06:37:31;5.72;;;3.90;;
61531;SDS011;47397;48.194;11.632;2022-08-04T06:38:33;5.70;;;4.43;;
61531;SDS011;47397;48.194;11.632;2022-08-04T06:39:33;5.72;;;3.92;;
61531;SDS011;47397;48.194;11.632;2022-08-04T06:40:36;6.40;;;4.38;;
61531;SDS011;47397;48.194;11.632;2022-08-04T06:41:36;4.72;;;4.22;;
61531;SDS011;47397;48.194;11.632;2022-08-04T06:42:37;5.07;;;4.10;;
61531;SDS011;47397;48.194;11.632;2022-08-04T06:43:38;5.28;;;3.80;;
61531;SDS011;47397;48.194;11.632;2022-08-04T06:44:39;6.78;;;4.07;;
61531;SDS011;47397;48.194;11.632;2022-08-04T06:45:41;4.57;;;3.72;;
61531;SDS011;47397;48.194;11.632;2022-08-04T06:46:43;5.80;;;3.83;;
61531;SDS011;47397;48.194;11.632;2022-08-04T06:47:44;4.88;;;3.80;;
61531;SDS011;47397;48.194;11.632;2022-08-04T06:48:45;5.47;;;3.63;;
61531;SDS011;47397;48.194;11.632;2022-08-04T06:49:48;5.68;;;3.50;;
61531;SDS011;47397;48.194;11.632;2022-08-04T06:50:50;5.63;;;3.75;;
61531;SDS011;47397;48.194;11.632;2022-08-04T06:51:51;5.38;;;3.67;;
61531;SDS011;47397;48.194;11.632;2022-08-04T06:52:53;5.78;;;3.80;;
61531;SDS011;47397;48.194;11.632;2022-08-04T06:53:54;7.53;;;3.83;;
61531;SDS011;47397;48.194;11.632;2022-08-04T06:54:54;4.82;;;3.80;;
61531;SDS011;47397;48.194;11.632;2022-08-04T06:55:56;4.18;;;3.47;;
61531;SDS011;47397;48.194;11.632;2022-08-04T06:57:00;5.32;;;3.95;;
61531;SDS011;47397;48.194;11.632;2022-08-04T06:58:02;3.70;;;3.08;;
61531;SDS011;47397;48.194;11.632;2022-08-04T06:59:03;4.25;;;3.60;;
61531;SDS011;47397;48.194;11.632;2022-08-04T07:00:05;4.63;;;3.70;;
61531;SDS011;47397;48.194;11.632;2022-08-04T07:01:07;5.38;;;3.70;;
61531;SDS011;47397;48.194;11.632;2022-08-04T07:02:10;5.68;;;3.65;;
61531;SDS011;47397;48.194;11.632;2022-08-04T07:03:14;4.28;;;3.72;;
61531;SDS011;47397;48.194;11.632;2022-08-04T07:04:16;3.88;;;3.35;;
61531;SDS011;47397;48.194;11.632;2022-08-04T07:05:18;4.95;;;3.80;;
61531;SDS011;47397;48.194;11.632;2022-08-04T07:06:20;5.82;;;3.90;;
61531;SDS011;47397;48.194;11.632;2022-08-04T07:07:22;6.38;;;4.00;;
61531;SDS011;47397;48.194;11.632;2022-08-04T07:08:23;4.60;;;3.88;;
61531;SDS011;47397;48.194;11.632;2022-08-04T07:09:23;4.60;;;3.38;;
61531;SDS011;47397;48.194;11.632;2022-08-04T07:10:24;5.78;;;3.83;;
61531;SDS011;47397;48.194;11.632;2022-08-04T07:11:27;4.47;;;3.65;;
61531;SDS011;47397;48.194;11.632;2022-08-04T07:12:28;4.28;;;3.55;;
61531;SDS011;47397;48.194;11.632;2022-08-04T07:13:29;6.20;;;3.53;;
61531;SDS011;47397;48.194;11.632;2022-08-04T07:14:30;4.70;;;3.50;;
61531;SDS011;47397;48.194;11.632;2022-08-04T07:15:32;4.10;;;3.33;;
61531;SDS011;47397;48.194;11.632;2022-08-04T07:16:34;5.55;;;3.55;;